createdAt,value
2022-10-13T00:03:48.535Z,14.65
2022-10-13T00:07:58.496Z,16.27
2022-10-13T00:12:00.520Z,13.68
2022-10-13T00:16:03.453Z,14.20
2022-10-13T00:20:06.611Z,14.88
2022-10-13T00:24:11.523Z,13.27
2022-10-13T00:28:15.644Z,13.50
2022-10-13T00:32:17.984Z,14.20
2022-10-13T00:36:22.067Z,14.50
2022-10-13T00:40:24.114Z,14.57
2022-10-13T00:44:54.294Z,13.70
2022-10-13T00:48:59.556Z,10.27
2022-10-13T00:53:01.942Z,13.88
2022-10-13T00:57:04.625Z,11.38
2022-10-13T01:01:07.128Z,11.20
2022-10-13T01:05:09.371Z,11.60
2022-10-13T01:09:11.473Z,11.93
2022-10-13T01:13:24.648Z,12.18
2022-10-13T01:17:38.887Z,11.13
2022-10-13T01:21:47.376Z,8.65
2022-10-13T01:26:22.645Z,13.70
2022-10-13T01:30:24.876Z,8.82
2022-10-13T01:34:34.461Z,7.10
2022-10-13T01:38:46.154Z,7.88
2022-10-13T01:42:59.244Z,8.18
2022-10-13T01:47:02.574Z,10.57
2022-10-13T01:51:07.087Z,13.88
2022-10-13T01:55:11.808Z,10.90
2022-10-13T01:59:14.757Z,10.45
2022-10-13T02:03:46.613Z,12.02
2022-10-13T02:07:56.444Z,12.57
2022-10-13T02:12:29.960Z,12.85
2022-10-13T02:16:40.991Z,14.65
2022-10-13T02:20:44.480Z,13.32
2022-10-13T02:24:46.703Z,14.93
2022-10-13T02:28:48.847Z,15.43
2022-10-13T02:32:51.203Z,14.75
2022-10-13T02:36:53.332Z,17.30
2022-10-13T02:40:55.408Z,16.90
2022-10-13T02:44:57.483Z,11.52
2022-10-13T02:48:59.562Z,7.97
2022-10-13T02:53:03.717Z,10.82
2022-10-13T02:57:05.729Z,11.32
2022-10-13T03:01:14.285Z,12.95
2022-10-13T03:05:17.072Z,11.00
2022-10-13T03:09:19.103Z,12.77
2022-10-13T03:13:21.158Z,10.13
2022-10-13T03:17:23.227Z,13.68
2022-10-13T03:21:25.631Z,17.02
2022-10-13T03:25:28.126Z,15.48
2022-10-13T03:29:30.223Z,17.92
2022-10-13T03:33:32.551Z,18.58
2022-10-13T03:37:34.536Z,11.65
2022-10-13T03:41:36.545Z,12.07
2022-10-13T03:45:38.653Z,13.57
2022-10-13T03:49:40.633Z,12.90
2022-10-13T03:53:42.713Z,19.27
2022-10-13T03:57:44.730Z,12.52
2022-10-13T04:01:46.824Z,13.93
2022-10-13T04:05:48.850Z,13.80
2022-10-13T04:09:52.120Z,15.68
2022-10-13T04:13:56.239Z,15.25
2022-10-13T04:17:58.280Z,15.60
2022-10-13T04:22:00.282Z,15.73
2022-10-13T04:26:02.481Z,14.25
2022-10-13T04:30:05.686Z,13.27
2022-10-13T04:34:08.450Z,14.43
2022-10-13T04:38:10.586Z,14.95
2022-10-13T04:42:12.634Z,13.85
2022-10-13T04:46:20.525Z,12.45
2022-10-13T04:50:23.908Z,15.70
2022-10-13T04:54:33.423Z,13.70
2022-10-13T04:58:36.196Z,12.90
2022-10-13T05:02:38.307Z,16.30
2022-10-13T05:07:05.316Z,15.77
2022-10-13T05:11:03.824Z,12.95
2022-10-13T05:15:06.399Z,15.10
2022-10-13T05:19:08.787Z,17.10
2022-10-13T05:23:10.794Z,17.88
2022-10-13T05:27:13.417Z,15.35
2022-10-13T05:31:18.610Z,16.98
2022-10-13T05:35:20.606Z,11.60
2022-10-13T05:39:22.692Z,12.30
2022-10-13T05:43:24.725Z,13.30
2022-10-13T05:47:28.309Z,15.45
2022-10-13T05:51:35.132Z,13.80
2022-10-13T05:55:38.306Z,18.27
2022-10-13T05:59:45.403Z,13.48
2022-10-13T06:03:49.640Z,17.45
2022-10-13T06:07:51.921Z,13.98
2022-10-13T06:11:53.903Z,12.30
2022-10-13T06:15:57.506Z,13.95
2022-10-13T06:20:00.052Z,12.43
2022-10-13T06:24:02.488Z,12.93
2022-10-13T06:28:04.563Z,13.07
2022-10-13T06:32:07.134Z,15.23
2022-10-13T06:36:09.644Z,13.63
2022-10-13T06:40:11.941Z,14.55
2022-10-13T06:44:14.062Z,14.60
2022-10-13T06:48:16.043Z,13.30
2022-10-13T06:52:18.306Z,12.50
2022-10-13T06:56:20.464Z,13.02
2022-10-13T07:00:22.617Z,14.40
2022-10-13T07:04:25.860Z,13.70
2022-10-13T07:08:31.116Z,15.00
2022-10-13T07:12:33.146Z,13.70
2022-10-13T07:16:35.133Z,12.07
2022-10-13T07:20:37.936Z,11.55
2022-10-13T07:24:39.935Z,10.63
2022-10-13T07:28:43.402Z,13.35
2022-10-13T07:32:45.506Z,14.55
2022-10-13T07:36:47.574Z,16.48
2022-10-13T07:40:49.658Z,14.82
2022-10-13T07:44:51.677Z,13.82
2022-10-13T07:48:54.380Z,16.23
2022-10-13T07:52:56.400Z,15.25
2022-10-13T07:56:58.415Z,14.40
2022-10-13T08:01:01.975Z,14.52
2022-10-13T08:05:05.664Z,14.68
2022-10-13T08:09:07.804Z,14.30
2022-10-13T08:13:11.202Z,15.52
2022-10-13T08:17:13.201Z,11.65
2022-10-13T08:25:43.772Z,15.07
2022-10-13T08:29:45.970Z,13.90
2022-10-13T08:33:48.132Z,19.48
2022-10-13T08:37:50.449Z,15.07
2022-10-13T08:41:54.180Z,15.75
2022-10-13T08:45:59.558Z,18.67
2022-10-13T08:50:13.634Z,13.57
2022-10-13T08:54:19.257Z,15.18
2022-10-13T08:58:25.759Z,16.75
2022-10-13T09:02:31.485Z,13.63
2022-10-13T09:06:37.905Z,13.43
2022-10-13T09:10:49.364Z,17.73
2022-10-13T09:15:01.280Z,16.42
2022-10-13T09:19:15.052Z,11.40
2022-10-13T09:23:20.234Z,12.85
2022-10-13T09:27:22.213Z,12.90
2022-10-13T09:31:30.196Z,14.85
2022-10-13T09:35:34.424Z,14.15
2022-10-13T09:39:37.161Z,13.05
2022-10-13T09:43:43.578Z,13.32
2022-10-13T09:48:02.813Z,11.60
2022-10-13T09:52:13.887Z,12.73
2022-10-13T09:56:34.549Z,14.23
2022-10-13T10:00:37.334Z,15.00
2022-10-13T10:04:43.181Z,14.20
2022-10-13T10:09:13.244Z,13.95
2022-10-13T10:13:15.874Z,15.40
2022-10-13T10:17:29.097Z,16.15
2022-10-13T10:21:44.118Z,13.70
2022-10-13T10:25:54.046Z,14.07
2022-10-13T10:30:03.832Z,14.13
2022-10-13T10:34:26.193Z,17.38
2022-10-13T10:38:52.802Z,15.52
2022-10-13T10:43:06.902Z,17.98
2022-10-13T10:47:32.816Z,16.33
2022-10-13T10:51:37.814Z,16.02
2022-10-13T10:55:51.426Z,19.85
2022-10-13T11:00:09.969Z,18.70
2022-10-13T11:04:33.084Z,17.98
2022-10-13T11:08:38.494Z,16.15
2022-10-13T11:12:50.633Z,16.83
2022-10-13T11:17:02.413Z,16.60
2022-10-13T11:21:04.551Z,14.93
2022-10-13T11:25:36.620Z,15.60
2022-10-13T11:29:57.736Z,17.45
2022-10-13T11:34:01.715Z,17.75
2022-10-13T11:38:18.127Z,16.83
2022-10-13T11:42:35.746Z,16.45
2022-10-13T11:47:27.587Z,17.83
2022-10-13T11:51:38.400Z,20.27
2022-10-13T11:55:53.676Z,16.60
2022-10-13T11:59:56.893Z,16.63
2022-10-13T12:04:14.408Z,13.13
2022-10-13T12:08:18.634Z,12.85
2022-10-13T12:12:23.043Z,13.63
2022-10-13T12:16:26.486Z,10.23
2022-10-13T12:20:31.737Z,18.27
2022-10-13T12:24:33.764Z,11.57
2022-10-13T12:28:54.072Z,12.55
2022-10-13T12:32:58.830Z,14.23
2022-10-13T12:37:03.769Z,14.20
2022-10-13T12:41:06.123Z,12.05
2022-10-13T12:45:16.092Z,12.25
2022-10-13T12:49:27.364Z,11.55
2022-10-13T12:53:29.481Z,14.00
2022-10-13T12:57:38.235Z,16.13
2022-10-13T13:01:40.349Z,14.70
2022-10-13T13:05:49.243Z,13.75
2022-10-13T13:10:09.187Z,13.40
2022-10-13T13:14:33.460Z,13.40
2022-10-13T13:18:41.762Z,12.68
2022-10-13T13:22:43.817Z,13.80
2022-10-13T13:26:46.241Z,14.57
2022-10-13T13:30:48.273Z,16.20
2022-10-13T13:34:50.869Z,15.95
2022-10-13T13:38:54.377Z,17.83
2022-10-13T13:42:56.537Z,15.68
2022-10-13T13:47:03.181Z,20.15
2022-10-13T13:51:05.537Z,13.55
2022-10-13T13:55:08.353Z,16.65
2022-10-13T13:59:10.361Z,18.27
2022-10-13T14:03:15.858Z,18.63
2022-10-13T14:07:21.592Z,16.85
2022-10-13T14:11:26.416Z,15.63
2022-10-13T14:15:29.881Z,18.00
2022-10-13T14:19:32.968Z,16.35
2022-10-13T14:23:35.600Z,18.08
2022-10-13T14:27:37.794Z,16.05
2022-10-13T14:31:43.056Z,21.45
2022-10-13T14:35:45.840Z,17.13
2022-10-13T14:39:51.081Z,18.95
2022-10-13T14:43:56.904Z,20.98
2022-10-13T14:47:58.943Z,14.98
2022-10-13T14:52:01.108Z,16.42
2022-10-13T14:56:03.889Z,16.63
2022-10-13T15:00:06.640Z,17.98
2022-10-13T15:04:09.017Z,13.90
2022-10-13T15:08:13.342Z,16.10
2022-10-13T15:12:15.352Z,17.20
2022-10-13T15:16:26.194Z,19.67
2022-10-13T15:20:29.147Z,16.40
2022-10-13T15:24:31.153Z,19.15
2022-10-13T15:28:39.689Z,15.57
2022-10-13T15:32:45.132Z,19.02
2022-10-13T15:36:47.130Z,18.25
2022-10-13T15:40:50.456Z,18.77
2022-10-13T15:49:14.492Z,18.08
2022-10-13T15:53:16.600Z,25.42
2022-10-13T15:57:18.616Z,19.70
2022-10-13T16:01:20.763Z,19.85
2022-10-13T16:05:22.875Z,17.27
2022-10-13T16:09:24.893Z,15.70
2022-10-13T16:13:26.952Z,19.60
2022-10-13T16:17:28.998Z,17.88
2022-10-13T16:21:31.032Z,20.45
2022-10-13T16:25:33.043Z,24.83
2022-10-13T16:29:35.132Z,19.88
2022-10-13T16:33:37.234Z,19.58
2022-10-13T16:37:39.287Z,20.05
2022-10-13T16:41:41.447Z,23.88
2022-10-13T16:45:59.055Z,23.65
2022-10-13T16:50:06.148Z,22.60
2022-10-13T16:54:08.900Z,22.45
2022-10-13T16:58:11.147Z,21.58
2022-10-13T17:02:14.773Z,18.33
2022-10-13T17:06:18.441Z,20.88
2022-10-13T17:10:20.545Z,19.83
2022-10-13T17:14:22.562Z,23.30
2022-10-13T17:18:26.061Z,22.33
2022-10-13T17:22:28.076Z,21.02
2022-10-13T17:26:30.110Z,22.52
2022-10-13T17:30:32.089Z,17.17
2022-10-13T17:34:36.303Z,18.88
2022-10-13T17:38:38.651Z,19.08
2022-10-13T17:42:40.701Z,20.60
2022-10-13T17:46:42.734Z,19.88
2022-10-13T17:50:44.773Z,20.02
2022-10-13T17:54:46.789Z,20.35
2022-10-13T17:58:50.105Z,20.58
2022-10-13T18:02:52.902Z,18.40
2022-10-13T18:06:54.886Z,20.02
2022-10-13T18:11:08.660Z,20.23
2022-10-13T18:15:10.838Z,22.50
2022-10-13T18:19:13.284Z,21.40
2022-10-13T18:23:15.426Z,26.52
2022-10-13T18:27:17.499Z,26.80
2022-10-13T18:31:21.024Z,25.15
2022-10-13T18:35:28.727Z,24.02
2022-10-13T18:39:34.996Z,25.02
2022-10-13T18:43:37.103Z,25.10
2022-10-13T18:47:39.205Z,22.15
2022-10-13T18:51:41.922Z,21.10
2022-10-13T18:55:44.356Z,21.25
2022-10-13T18:59:46.374Z,20.30
2022-10-13T19:03:50.563Z,21.45
2022-10-13T19:07:52.592Z,21.02
2022-10-13T19:11:57.627Z,24.98
2022-10-13T19:16:02.997Z,20.17
2022-10-13T19:20:05.598Z,19.77
2022-10-13T19:24:08.216Z,20.92
2022-10-13T19:28:11.082Z,21.15
2022-10-13T19:32:13.083Z,24.25
2022-10-13T19:36:30.165Z,18.02
2022-10-13T19:40:40.053Z,18.02
2022-10-13T19:44:44.206Z,19.13
2022-10-13T19:48:46.444Z,12.65
2022-10-13T19:52:48.486Z,14.32
2022-10-13T19:56:51.204Z,10.23
2022-10-13T20:00:53.236Z,7.38
2022-10-13T20:04:55.280Z,5.00
2022-10-13T20:08:58.605Z,6.38
2022-10-13T20:13:00.599Z,6.63
2022-10-13T20:17:02.839Z,9.20
2022-10-13T20:21:07.114Z,11.68
2022-10-13T20:25:09.545Z,6.93
2022-10-13T20:29:11.692Z,9.23
2022-10-13T20:33:13.866Z,7.47
2022-10-13T20:37:15.963Z,8.85
2022-10-13T20:41:21.259Z,8.00
2022-10-13T20:45:23.320Z,7.22
2022-10-13T20:49:25.326Z,5.95
2022-10-13T20:53:27.806Z,10.18
2022-10-13T20:57:29.825Z,16.45
2022-10-13T21:01:32.620Z,18.35
2022-10-13T21:05:34.614Z,25.98
2022-10-13T21:09:36.787Z,14.23
2022-10-13T21:13:39.918Z,16.95
2022-10-13T21:17:42.594Z,15.77
2022-10-13T21:21:44.657Z,14.90
2022-10-13T21:25:46.671Z,12.60
2022-10-13T21:29:48.678Z,12.95
2022-10-13T21:33:51.363Z,9.77
2022-10-13T21:37:53.411Z,7.50
2022-10-13T21:41:55.456Z,8.32
2022-10-13T21:46:23.195Z,7.50
2022-10-13T21:50:28.145Z,8.27
2022-10-13T21:54:30.132Z,10.77
2022-10-13T21:58:32.252Z,8.48
2022-10-13T22:02:34.266Z,9.40
2022-10-13T22:06:36.315Z,9.95
2022-10-13T22:10:38.317Z,9.35
2022-10-13T22:14:40.377Z,8.57
2022-10-13T22:18:42.670Z,5.47
2022-10-13T22:22:44.644Z,6.53
2022-10-13T22:26:48.655Z,7.80
2022-10-13T22:30:52.334Z,7.03
2022-10-13T22:34:54.340Z,4.10
2022-10-13T22:38:58.777Z,7.00
2022-10-13T22:43:00.763Z,6.55
2022-10-13T22:47:03.012Z,5.50
2022-10-13T22:51:06.502Z,5.43
2022-10-13T22:55:09.117Z,5.25
2022-10-13T22:59:12.945Z,6.38
2022-10-13T23:03:15.240Z,4.72
2022-10-13T23:07:22.058Z,6.47
2022-10-13T23:11:24.348Z,4.70
2022-10-13T23:15:26.433Z,6.00
2022-10-13T23:19:28.599Z,5.00
2022-10-13T23:23:30.887Z,4.70
2022-10-13T23:27:32.898Z,6.25
2022-10-13T23:31:35.001Z,7.10
2022-10-13T23:35:36.994Z,5.35
2022-10-13T23:39:38.976Z,4.90
2022-10-13T23:43:41.627Z,4.38
2022-10-13T23:47:43.625Z,5.30
2022-10-13T23:51:45.740Z,5.13
2022-10-13T23:55:47.862Z,5.65
2022-10-13T23:59:49.860Z,3.75
